sensor_id;sensor_type;location;lat;lon;timestamp;pressure;altitude;pressure_sealevel;temperature;humidity
9740;BME280;4909;42.680;26.324;2023-03-20T00:00:29;99027.63;;;16.62;56.21
9740;BME280;4909;42.680;26.324;2023-03-20T00:02:58;99007.16;;;16.61;57.81
9740;BME280;4909;42.680;26.324;2023-03-20T00:05:26;98970.97;;;16.54;56.57
9740;BME280;4909;42.680;26.324;2023-03-20T00:07:54;99007.31;;;17.27;57.80
9740;BME280;4909;42.680;26.324;2023-03-20T00:10:25;99016.50;;;17.64;53.90
9740;BME280;4909;42.680;26.324;2023-03-20T00:12:52;99015.06;;;17.86;54.28
9740;BME280;4909;42.680;26.324;2023-03-20T00:15:27;98997.94;;;17.20;53.08
9740;BME280;4909;42.680;26.324;2023-03-20T00:17:57;99008.97;;;17.16;54.84
9740;BME280;4909;42.680;26.324;2023-03-20T00:20:24;98980.13;;;17.19;55.56
9740;BME280;4909;42.680;26.324;2023-03-20T00:22:52;99010.31;;;17.89;54.90
9740;BME280;4909;42.680;26.324;2023-03-20T00:25:21;99001.41;;;17.89;52.83
9740;BME280;4909;42.680;26.324;2023-03-20T00:27:49;98995.63;;;18.07;51.72
9740;BME280;4909;42.680;26.324;2023-03-20T00:30:19;99003.91;;;18.04;51.53
9740;BME280;4909;42.680;26.324;2023-03-20T00:32:48;99006.69;;;18.03;51.50
9740;BME280;4909;42.680;26.324;2023-03-20T00:35:21;98993.44;;;17.87;52.58
9740;BME280;4909;42.680;26.324;2023-03-20T00:37:50;99000.41;;;17.77;53.84
9740;BME280;4909;42.680;26.324;2023-03-20T00:40:17;98985.66;;;18.09;52.49
9740;BME280;4909;42.680;26.324;2023-03-20T00:42:46;99001.13;;;18.18;52.09
9740;BME280;4909;42.680;26.324;2023-03-20T00:45:16;99005.22;;;18.24;52.14
9740;BME280;4909;42.680;26.324;2023-03-20T00:47:43;99007.22;;;18.08;51.25
9740;BME280;4909;42.680;26.324;2023-03-20T00:50:21;98963.81;;;17.76;52.53
9740;BME280;4909;42.680;26.324;2023-03-20T00:52:50;98986.97;;;17.64;51.93
9740;BME280;4909;42.680;26.324;2023-03-20T00:55:17;98992.94;;;17.55;53.13
9740;BME280;4909;42.680;26.324;2023-03-20T00:57:48;98998.28;;;17.02;52.78
9740;BME280;4909;42.680;26.324;2023-03-20T01:00:35;98993.13;;;16.56;54.05
9740;BME280;4909;42.680;26.324;2023-03-20T01:03:13;98986.25;;;16.24;54.29
9740;BME280;4909;42.680;26.324;2023-03-20T01:05:43;98983.88;;;16.33;58.64
9740;BME280;4909;42.680;26.324;2023-03-20T01:08:14;98982.50;;;17.24;57.11
9740;BME280;4909;42.680;26.324;2023-03-20T01:10:42;98980.19;;;17.59;54.40
9740;BME280;4909;42.680;26.324;2023-03-20T01:13:16;98984.53;;;17.74;54.28
9740;BME280;4909;42.680;26.324;2023-03-20T01:15:46;98966.28;;;17.92;53.04
9740;BME280;4909;42.680;26.324;2023-03-20T01:18:13;98977.34;;;17.87;53.68
9740;BME280;4909;42.680;26.324;2023-03-20T01:20:42;98970.88;;;17.64;53.34
9740;BME280;4909;42.680;26.324;2023-03-20T01:23:10;98932.13;;;17.94;52.92
9740;BME280;4909;42.680;26.324;2023-03-20T01:25:38;98964.81;;;18.00;50.18
9740;BME280;4909;42.680;26.324;2023-03-20T01:28:12;98957.47;;;17.90;51.94
9740;BME280;4909;42.680;26.324;2023-03-20T01:30:39;98944.91;;;18.03;52.51
9740;BME280;4909;42.680;26.324;2023-03-20T01:33:12;98953.41;;;18.35;50.75
9740;BME280;4909;42.680;26.324;2023-03-20T01:35:39;98954.56;;;18.31;49.65
9740;BME280;4909;42.680;26.324;2023-03-20T01:38:11;98847.47;;;17.88;50.07
9740;BME280;4909;42.680;26.324;2023-03-20T01:40:43;98946.38;;;18.70;49.18
9740;BME280;4909;42.680;26.324;2023-03-20T01:43:16;98938.72;;;18.77;48.26
9740;BME280;4909;42.680;26.324;2023-03-20T01:45:48;98941.78;;;18.59;49.64
9740;BME280;4909;42.680;26.324;2023-03-20T01:48:18;98925.63;;;18.72;49.51
9740;BME280;4909;42.680;26.324;2023-03-20T01:50:46;98945.44;;;18.58;47.77
9740;BME280;4909;42.680;26.324;2023-03-20T01:53:17;98953.47;;;18.46;49.74
9740;BME280;4909;42.680;26.324;2023-03-20T01:55:47;98942.63;;;18.60;48.95
9740;BME280;4909;42.680;26.324;2023-03-20T01:58:20;98951.13;;;17.78;47.78
9740;BME280;4909;42.680;26.324;2023-03-20T02:00:50;98933.97;;;17.14;52.65
9740;BME280;4909;42.680;26.324;2023-03-20T02:03:18;98956.97;;;16.77;49.82
9740;BME280;4909;42.680;26.324;2023-03-20T02:05:47;98951.50;;;16.93;54.68
9740;BME280;4909;42.680;26.324;2023-03-20T02:08:23;98955.72;;;17.10;50.15
9740;BME280;4909;42.680;26.324;2023-03-20T02:10:53;98954.22;;;17.06;53.67
9740;BME280;4909;42.680;26.324;2023-03-20T02:13:20;98944.06;;;17.23;53.15
9740;BME280;4909;42.680;26.324;2023-03-20T02:16:01;98916.34;;;17.37;52.13
9740;BME280;4909;42.680;26.324;2023-03-20T02:18:29;98948.78;;;17.47;50.33
9740;BME280;4909;42.680;26.324;2023-03-20T02:21:19;98945.34;;;16.91;52.38
9740;BME280;4909;42.680;26.324;2023-03-20T02:24:16;98939.84;;;16.37;51.59
9740;BME280;4909;42.680;26.324;2023-03-20T02:27:00;98922.63;;;15.71;54.83
9740;BME280;4909;42.680;26.324;2023-03-20T02:33:13;98938.50;;;16.73;55.47
9740;BME280;4909;42.680;26.324;2023-03-20T02:36:18;98941.53;;;17.22;53.68
9740;BME280;4909;42.680;26.324;2023-03-20T02:39:09;98942.00;;;17.41;53.47
9740;BME280;4909;42.680;26.324;2023-03-20T02:41:41;98939.97;;;17.45;53.33
9740;BME280;4909;42.680;26.324;2023-03-20T02:44:13;98938.13;;;17.72;52.42
9740;BME280;4909;42.680;26.324;2023-03-20T02:46:49;98936.41;;;18.21;50.63
9740;BME280;4909;42.680;26.324;2023-03-20T02:49:31;98942.00;;;18.31;50.58
9740;BME280;4909;42.680;26.324;2023-03-20T02:52:04;98939.31;;;18.44;49.99
9740;BME280;4909;42.680;26.324;2023-03-20T02:54:40;98934.81;;;18.44;49.98
9740;BME280;4909;42.680;26.324;2023-03-20T02:57:15;98933.47;;;18.50;49.10
9740;BME280;4909;42.680;26.324;2023-03-20T02:59:49;98935.28;;;19.11;47.81
9740;BME280;4909;42.680;26.324;2023-03-20T03:02:25;98930.34;;;19.05;46.50
9740;BME280;4909;42.680;26.324;2023-03-20T03:04:58;98925.63;;;18.59;46.57
9740;BME280;4909;42.680;26.324;2023-03-20T03:07:28;98927.59;;;17.81;48.58
9740;BME280;4909;42.680;26.324;2023-03-20T03:10:00;98929.69;;;17.51;49.60
9740;BME280;4909;42.680;26.324;2023-03-20T03:12:33;98898.69;;;17.72;50.74
9740;BME280;4909;42.680;26.324;2023-03-20T03:15:05;98923.72;;;17.60;49.98
9740;BME280;4909;42.680;26.324;2023-03-20T03:17:35;98926.22;;;18.01;48.67
9740;BME280;4909;42.680;26.324;2023-03-20T03:20:07;98922.88;;;17.98;51.25
9740;BME280;4909;42.680;26.324;2023-03-20T03:22:35;98922.84;;;18.48;49.03
9740;BME280;4909;42.680;26.324;2023-03-20T03:25:04;98917.69;;;18.45;48.85
9740;BME280;4909;42.680;26.324;2023-03-20T03:27:35;98924.28;;;18.54;48.30
9740;BME280;4909;42.680;26.324;2023-03-20T03:30:05;98903.16;;;18.60;48.88
9740;BME280;4909;42.680;26.324;2023-03-20T03:32:36;98926.69;;;18.70;48.52
9740;BME280;4909;42.680;26.324;2023-03-20T03:35:14;98919.09;;;18.63;47.12
9740;BME280;4909;42.680;26.324;2023-03-20T03:37:48;98923.03;;;18.71;48.30
9740;BME280;4909;42.680;26.324;2023-03-20T03:40:30;98918.06;;;18.77;48.10
9740;BME280;4909;42.680;26.324;2023-03-20T03:43:02;98922.72;;;19.23;46.71
9740;BME280;4909;42.680;26.324;2023-03-20T03:45:35;98930.75;;;19.12;47.05
9740;BME280;4909;42.680;26.324;2023-03-20T03:48:09;98925.81;;;19.29;46.40
9740;BME280;4909;42.680;26.324;2023-03-20T03:50:41;98934.81;;;19.41;44.89
9740;BME280;4909;42.680;26.324;2023-03-20T03:53:13;98933.19;;;19.38;46.29
9740;BME280;4909;42.680;26.324;2023-03-20T03:55:46;98928.09;;;19.46;45.36
9740;BME280;4909;42.680;26.324;2023-03-20T03:58:18;98924.09;;;18.81;45.06
9740;BME280;4909;42.680;26.324;2023-03-20T04:00:48;98927.72;;;18.18;46.04
9740;BME280;4909;42.680;26.324;2023-03-20T04:03:20;98923.41;;;18.15;49.68
9740;BME280;4909;42.680;26.324;2023-03-20T04:05:50;98931.00;;;18.59;48.25
9740;BME280;4909;42.680;26.324;2023-03-20T04:08:20;98920.09;;;18.86;47.32
9740;BME280;4909;42.680;26.324;2023-03-20T04:10:48;98929.38;;;19.30;46.09
9740;BME280;4909;42.680;26.324;2023-03-20T04:13:15;98935.34;;;19.46;45.95
9740;BME280;4909;42.680;26.324;2023-03-20T04:15:42;98941.88;;;19.42;46.19
9740;BME280;4909;42.680;26.324;2023-03-20T04:18:14;98933.78;;;19.55;44.90
9740;BME280;4909;42.680;26.324;2023-03-20T04:20:42;98934.75;;;19.53;44.45
9740;BME280;4909;42.680;26.324;2023-03-20T04:23:08;98939.16;;;18.71;46.45
9740;BME280;4909;42.680;26.324;2023-03-20T04:25:35;98933.63;;;18.23;47.66
9740;BME280;4909;42.680;26.324;2023-03-20T04:28:04;98937.22;;;16.92;45.58
9740;BME280;4909;42.680;26.324;2023-03-20T04:30:31;98937.47;;;15.90;51.18
9740;BME280;4909;42.680;26.324;2023-03-20T04:32:57;98936.63;;;14.69;51.90
9740;BME280;4909;42.680;26.324;2023-03-20T04:35:24;98936.19;;;13.62;61.41
9740;BME280;4909;42.680;26.324;2023-03-20T04:37:51;98933.63;;;13.26;59.26
9740;BME280;4909;42.680;26.324;2023-03-20T04:40:18;98939.72;;;13.11;66.07
9740;BME280;4909;42.680;26.324;2023-03-20T04:42:44;98932.47;;;14.15;62.89
9740;BME280;4909;42.680;26.324;2023-03-20T04:45:13;98940.38;;;14.01;63.83
9740;BME280;4909;42.680;26.324;2023-03-20T04:47:40;98935.50;;;14.24;62.60
9740;BME280;4909;42.680;26.324;2023-03-20T04:50:07;98936.75;;;15.58;59.52
9740;BME280;4909;42.680;26.324;2023-03-20T04:52:34;98942.25;;;16.42;53.05
9740;BME280;4909;42.680;26.324;2023-03-20T04:55:00;98945.88;;;17.10;54.95
9740;BME280;4909;42.680;26.324;2023-03-20T04:57:27;98952.03;;;17.52;48.54
9740;BME280;4909;42.680;26.324;2023-03-20T04:59:56;98951.44;;;15.51;48.53
9740;BME280;4909;42.680;26.324;2023-03-20T05:02:24;98936.81;;;13.33;60.93
9740;BME280;4909;42.680;26.324;2023-03-20T05:04:51;98955.81;;;12.72;60.23
9740;BME280;4909;42.680;26.324;2023-03-20T05:07:18;98946.56;;;12.25;67.70
9740;BME280;4909;42.680;26.324;2023-03-20T05:09:45;98948.22;;;13.54;69.54
9740;BME280;4909;42.680;26.324;2023-03-20T05:12:11;98949.41;;;13.98;64.16
9740;BME280;4909;42.680;26.324;2023-03-20T05:14:38;98943.09;;;14.65;60.68
9740;BME280;4909;42.680;26.324;2023-03-20T05:17:05;98942.59;;;15.49;60.43
9740;BME280;4909;42.680;26.324;2023-03-20T05:19:33;98939.94;;;16.07;56.20
9740;BME280;4909;42.680;26.324;2023-03-20T05:22:01;98938.41;;;16.32;55.16
9740;BME280;4909;42.680;26.324;2023-03-20T05:24:27;98936.25;;;16.93;53.06
9740;BME280;4909;42.680;26.324;2023-03-20T05:26:54;98937.81;;;17.89;50.07
9740;BME280;4909;42.680;26.324;2023-03-20T05:29:21;98943.28;;;17.88;49.92
9740;BME280;4909;42.680;26.324;2023-03-20T05:31:48;98945.00;;;18.01;50.55
9740;BME280;4909;42.680;26.324;2023-03-20T05:34:15;98948.03;;;17.97;51.67
9740;BME280;4909;42.680;26.324;2023-03-20T05:36:43;98947.38;;;18.31;50.20
9740;BME280;4909;42.680;26.324;2023-03-20T05:39:10;98940.81;;;18.60;47.80
9740;BME280;4909;42.680;26.324;2023-03-20T05:41:37;98947.44;;;18.80;49.16
9740;BME280;4909;42.680;26.324;2023-03-20T05:44:04;98941.38;;;19.13;48.54
9740;BME280;4909;42.680;26.324;2023-03-20T05:46:30;98947.16;;;19.67;46.13
9740;BME280;4909;42.680;26.324;2023-03-20T05:48:57;98946.09;;;19.81;46.08
9740;BME280;4909;42.680;26.324;2023-03-20T05:51:24;98947.41;;;19.40;44.18
9740;BME280;4909;42.680;26.324;2023-03-20T05:53:52;98945.22;;;18.61;45.33
9740;BME280;4909;42.680;26.324;2023-03-20T05:56:19;98949.00;;;18.21;49.61
9740;BME280;4909;42.680;26.324;2023-03-20T05:58:46;98948.25;;;17.42;43.14
9740;BME280;4909;42.680;26.324;2023-03-20T06:01:13;98941.59;;;14.44;50.96
9740;BME280;4909;42.680;26.324;2023-03-20T06:03:42;98902.41;;;13.11;55.61
9740;BME280;4909;42.680;26.324;2023-03-20T06:06:09;98939.31;;;12.83;57.41
9740;BME280;4909;42.680;26.324;2023-03-20T06:08:36;98943.09;;;13.15;63.60
9740;BME280;4909;42.680;26.324;2023-03-20T06:11:05;98950.09;;;14.02;57.37
9740;BME280;4909;42.680;26.324;2023-03-20T06:13:31;98942.72;;;15.48;56.80
9740;BME280;4909;42.680;26.324;2023-03-20T06:15:59;98942.00;;;17.41;50.00
9740;BME280;4909;42.680;26.324;2023-03-20T06:18:39;98904.38;;;17.16;43.58
9740;BME280;4909;42.680;26.324;2023-03-20T06:21:06;98948.34;;;16.86;44.52
9740;BME280;4909;42.680;26.324;2023-03-20T06:23:33;98942.00;;;17.93;48.76
9740;BME280;4909;42.680;26.324;2023-03-20T06:26:00;98941.50;;;19.35;43.75
9740;BME280;4909;42.680;26.324;2023-03-20T06:28:28;98943.91;;;20.54;42.02
9740;BME280;4909;42.680;26.324;2023-03-20T06:30:56;98943.78;;;21.32;36.66
9740;BME280;4909;42.680;26.324;2023-03-20T06:33:22;98931.50;;;20.74;39.11
9740;BME280;4909;42.680;26.324;2023-03-20T06:35:49;98932.56;;;20.16;37.32
9740;BME280;4909;42.680;26.324;2023-03-20T06:38:17;98937.81;;;19.49;39.49
9740;BME280;4909;42.680;26.324;2023-03-20T06:40:45;98937.22;;;19.09;39.91
9740;BME280;4909;42.680;26.324;2023-03-20T06:43:13;98884.25;;;19.09;39.24
9740;BME280;4909;42.680;26.324;2023-03-20T06:45:44;98920.09;;;20.70;39.28
9740;BME280;4909;42.680;26.324;2023-03-20T06:48:11;98925.63;;;21.34;38.32
9740;BME280;4909;42.680;26.324;2023-03-20T06:50:38;98943.97;;;21.72;34.92
9740;BME280;4909;42.680;26.324;2023-03-20T06:53:04;98918.16;;;21.58;37.20
9740;BME280;4909;42.680;26.324;2023-03-20T06:55:31;98938.00;;;21.68;34.21
9740;BME280;4909;42.680;26.324;2023-03-20T06:57:58;98946.03;;;21.80;33.96
9740;BME280;4909;42.680;26.324;2023-03-20T07:00:25;98946.38;;;21.86;34.33
9740;BME280;4909;42.680;26.324;2023-03-20T07:02:54;98930.34;;;22.36;33.43
9740;BME280;4909;42.680;26.324;2023-03-20T07:05:20;98930.50;;;22.14;33.35
9740;BME280;4909;42.680;26.324;2023-03-20T07:07:47;98950.06;;;21.21;35.89
9740;BME280;4909;42.680;26.324;2023-03-20T07:10:15;98944.38;;;19.21;38.92
9740;BME280;4909;42.680;26.324;2023-03-20T07:12:42;98945.53;;;18.32;41.47
9740;BME280;4909;42.680;26.324;2023-03-20T07:15:09;98945.94;;;17.62;44.48
9740;BME280;4909;42.680;26.324;2023-03-20T07:17:36;98938.31;;;16.76;46.22
9740;BME280;4909;42.680;26.324;2023-03-20T07:20:06;98927.06;;;16.14;50.08
9740;BME280;4909;42.680;26.324;2023-03-20T07:22:33;98935.63;;;19.06;43.25
9740;BME280;4909;42.680;26.324;2023-03-20T07:25:00;98910.72;;;19.74;39.22
9740;BME280;4909;42.680;26.324;2023-03-20T07:27:27;98940.25;;;19.52;39.94
9740;BME280;4909;42.680;26.324;2023-03-20T07:29:56;98939.63;;;21.06;38.61
9740;BME280;4909;42.680;26.324;2023-03-20T07:32:23;98938.34;;;21.64;35.91
9740;BME280;4909;42.680;26.324;2023-03-20T07:34:49;98943.59;;;22.18;34.20
9740;BME280;4909;42.680;26.324;2023-03-20T07:37:18;98944.91;;;21.30;36.05
9740;BME280;4909;42.680;26.324;2023-03-20T07:39:45;98933.13;;;19.86;38.24
9740;BME280;4909;42.680;26.324;2023-03-20T07:42:12;98935.63;;;18.45;43.30
9740;BME280;4909;42.680;26.324;2023-03-20T07:44:39;98941.78;;;19.67;40.24
9740;BME280;4909;42.680;26.324;2023-03-20T07:47:06;98946.13;;;20.38;39.20
9740;BME280;4909;42.680;26.324;2023-03-20T07:49:33;98939.78;;;18.87;42.27
9740;BME280;4909;42.680;26.324;2023-03-20T07:52:00;98939.03;;;19.80;43.00
9740;BME280;4909;42.680;26.324;2023-03-20T07:54:28;98945.31;;;22.40;37.85
9740;BME280;4909;42.680;26.324;2023-03-20T07:56:55;98942.34;;;24.56;31.81
9740;BME280;4909;42.680;26.324;2023-03-20T07:59:21;98946.53;;;23.56;32.47
9740;BME280;4909;42.680;26.324;2023-03-20T08:01:49;98945.09;;;23.71;32.70
9740;BME280;4909;42.680;26.324;2023-03-20T08:04:17;98926.56;;;23.66;31.47
9740;BME280;4909;42.680;26.324;2023-03-20T08:06:46;98937.63;;;23.25;32.85
9740;BME280;4909;42.680;26.324;2023-03-20T08:09:13;98941.25;;;21.83;36.98
9740;BME280;4909;42.680;26.324;2023-03-20T08:11:41;98945.91;;;22.23;35.47
9740;BME280;4909;42.680;26.324;2023-03-20T08:14:08;98937.38;;;21.97;37.96
9740;BME280;4909;42.680;26.324;2023-03-20T08:16:35;98934.81;;;23.46;34.30
9740;BME280;4909;42.680;26.324;2023-03-20T08:19:02;98935.34;;;24.63;31.85
9740;BME280;4909;42.680;26.324;2023-03-20T08:21:31;98939.78;;;25.64;30.38
9740;BME280;4909;42.680;26.324;2023-03-20T08:23:58;98938.88;;;25.81;28.97
9740;BME280;4909;42.680;26.324;2023-03-20T08:26:25;98936.31;;;24.35;32.15
9740;BME280;4909;42.680;26.324;2023-03-20T08:28:53;98940.84;;;25.08;30.94
9740;BME280;4909;42.680;26.324;2023-03-20T08:31:20;98919.75;;;26.34;29.13
9740;BME280;4909;42.680;26.324;2023-03-20T08:33:47;98898.13;;;26.58;27.49
9740;BME280;4909;42.680;26.324;2023-03-20T08:36:15;98936.66;;;25.94;30.24
9740;BME280;4909;42.680;26.324;2023-03-20T08:38:44;98929.91;;;26.06;28.55
9740;BME280;4909;42.680;26.324;2023-03-20T08:41:11;98928.19;;;25.62;29.83
9740;BME280;4909;42.680;26.324;2023-03-20T08:43:38;98933.00;;;25.50;29.42
9740;BME280;4909;42.680;26.324;2023-03-20T08:46:07;98933.94;;;24.86;31.71
9740;BME280;4909;42.680;26.324;2023-03-20T08:48:34;98925.97;;;25.47;30.95
9740;BME280;4909;42.680;26.324;2023-03-20T08:51:01;98929.16;;;25.43;30.09
9740;BME280;4909;42.680;26.324;2023-03-20T08:53:28;98920.25;;;26.29;28.89
9740;BME280;4909;42.680;26.324;2023-03-20T08:55:55;98924.00;;;25.67;30.61
9740;BME280;4909;42.680;26.324;2023-03-20T08:58:22;98929.22;;;25.61;30.57
9740;BME280;4909;42.680;26.324;2023-03-20T09:00:49;98929.03;;;25.44;30.25
9740;BME280;4909;42.680;26.324;2023-03-20T09:03:18;98927.97;;;22.82;33.72
9740;BME280;4909;42.680;26.324;2023-03-20T09:05:49;98926.09;;;22.73;35.51
9740;BME280;4909;42.680;26.324;2023-03-20T09:08:17;98919.25;;;23.38;34.80
9740;BME280;4909;42.680;26.324;2023-03-20T09:10:46;98928.13;;;23.59;33.85
9740;BME280;4909;42.680;26.324;2023-03-20T09:13:13;98920.38;;;23.26;34.58
9740;BME280;4909;42.680;26.324;2023-03-20T09:15:40;98920.34;;;21.33;38.04
9740;BME280;4909;42.680;26.324;2023-03-20T09:18:07;98916.00;;;20.98;38.89
9740;BME280;4909;42.680;26.324;2023-03-20T09:20:36;98901.53;;;20.88;39.40
9740;BME280;4909;42.680;26.324;2023-03-20T09:23:03;98898.91;;;20.66;41.28
9740;BME280;4909;42.680;26.324;2023-03-20T09:25:30;98899.41;;;21.25;40.57
9740;BME280;4909;42.680;26.324;2023-03-20T09:27:57;98898.66;;;21.23;39.64
9740;BME280;4909;42.680;26.324;2023-03-20T09:30:24;98880.47;;;20.82;40.19
9740;BME280;4909;42.680;26.324;2023-03-20T09:32:51;98892.50;;;21.21;40.14
9740;BME280;4909;42.680;26.324;2023-03-20T09:35:18;98888.69;;;20.80;40.70
9740;BME280;4909;42.680;26.324;2023-03-20T09:37:47;98866.19;;;20.48;41.36
9740;BME280;4909;42.680;26.324;2023-03-20T09:40:23;98875.59;;;20.20;42.91
9740;BME280;4909;42.680;26.324;2023-03-20T09:42:58;98874.22;;;19.70;44.24
9740;BME280;4909;42.680;26.324;2023-03-20T09:45:38;98873.47;;;19.33;46.70
9740;BME280;4909;42.680;26.324;2023-03-20T09:48:13;98863.38;;;18.65;47.69
9740;BME280;4909;42.680;26.324;2023-03-20T09:50:45;98860.03;;;19.09;46.95
9740;BME280;4909;42.680;26.324;2023-03-20T09:53:21;98861.81;;;19.45;46.71
9740;BME280;4909;42.680;26.324;2023-03-20T09:55:51;98867.97;;;19.35;46.64
9740;BME280;4909;42.680;26.324;2023-03-20T09:58:22;98858.75;;;19.50;46.81
9740;BME280;4909;42.680;26.324;2023-03-20T10:00:54;98856.78;;;19.52;45.50
9740;BME280;4909;42.680;26.324;2023-03-20T10:03:26;98857.47;;;19.43;46.04
9740;BME280;4909;42.680;26.324;2023-03-20T10:05:57;98861.88;;;18.00;49.52
9740;BME280;4909;42.680;26.324;2023-03-20T10:08:31;98850.81;;;17.92;52.26
9740;BME280;4909;42.680;26.324;2023-03-20T10:11:05;98853.41;;;18.55;50.73
9740;BME280;4909;42.680;26.324;2023-03-20T10:13:57;98854.78;;;19.08;47.59
9740;BME280;4909;42.680;26.324;2023-03-20T10:16:32;98855.47;;;18.26;49.75
9740;BME280;4909;42.680;26.324;2023-03-20T10:19:10;98851.13;;;18.00;51.13
9740;BME280;4909;42.680;26.324;2023-03-20T10:21:42;98855.56;;;17.75;52.46
9740;BME280;4909;42.680;26.324;2023-03-20T10:24:15;98844.38;;;18.43;51.64
9740;BME280;4909;42.680;26.324;2023-03-20T10:26:45;98849.22;;;18.98;49.23
9740;BME280;4909;42.680;26.324;2023-03-20T10:29:19;98843.97;;;18.97;48.49
9740;BME280;4909;42.680;26.324;2023-03-20T10:31:56;98843.50;;;19.03;49.46
9740;BME280;4909;42.680;26.324;2023-03-20T10:34:35;98841.09;;;19.11;49.26
9740;BME280;4909;42.680;26.324;2023-03-20T10:37:20;98831.88;;;19.26;48.52
9740;BME280;4909;42.680;26.324;2023-03-20T10:39:59;98826.69;;;19.12;49.40
9740;BME280;4909;42.680;26.324;2023-03-20T10:42:33;98825.50;;;18.92;49.47
9740;BME280;4909;42.680;26.324;2023-03-20T10:45:04;98814.78;;;18.80;49.45
9740;BME280;4909;42.680;26.324;2023-03-20T10:47:39;98815.03;;;18.77;50.27
9740;BME280;4909;42.680;26.324;2023-03-20T10:50:13;98821.56;;;18.61;50.73
9740;BME280;4909;42.680;26.324;2023-03-20T10:52:42;98809.03;;;18.73;49.91
9740;BME280;4909;42.680;26.324;2023-03-20T10:55:14;98815.03;;;18.77;49.52
9740;BME280;4909;42.680;26.324;2023-03-20T10:57:45;98809.59;;;18.65;51.70
9740;BME280;4909;42.680;26.324;2023-03-20T11:00:17;98805.34;;;18.74;50.08
9740;BME280;4909;42.680;26.324;2023-03-20T11:02:45;98785.41;;;18.65;50.30
9740;BME280;4909;42.680;26.324;2023-03-20T11:05:21;98780.97;;;18.88;53.21
9740;BME280;4909;42.680;26.324;2023-03-20T11:07:50;98787.75;;;19.05;49.31
9740;BME280;4909;42.680;26.324;2023-03-20T11:10:30;98782.97;;;18.97;48.91
9740;BME280;4909;42.680;26.324;2023-03-20T11:12:57;98776.47;;;18.65;49.99
9740;BME280;4909;42.680;26.324;2023-03-20T11:15:31;98763.72;;;18.56;49.66
9740;BME280;4909;42.680;26.324;2023-03-20T11:18:00;98748.50;;;18.67;52.23
9740;BME280;4909;42.680;26.324;2023-03-20T11:20:33;98742.28;;;18.67;49.89
9740;BME280;4909;42.680;26.324;2023-03-20T11:23:02;98752.16;;;18.43;50.69
9740;BME280;4909;42.680;26.324;2023-03-20T11:25:33;98749.03;;;18.73;49.71
9740;BME280;4909;42.680;26.324;2023-03-20T11:28:24;98746.44;;;18.11;51.71
9740;BME280;4909;42.680;26.324;2023-03-20T11:30:57;98740.69;;;17.92;51.95
9740;BME280;4909;42.680;26.324;2023-03-20T11:33:27;98738.53;;;17.60;52.66
9740;BME280;4909;42.680;26.324;2023-03-20T11:35:55;98742.59;;;18.15;51.82
9740;BME280;4909;42.680;26.324;2023-03-20T11:38:23;98731.44;;;18.32;51.85
9740;BME280;4909;42.680;26.324;2023-03-20T11:40:52;98728.50;;;18.35;50.50
9740;BME280;4909;42.680;26.324;2023-03-20T11:43:22;98729.91;;;17.30;55.87
9740;BME280;4909;42.680;26.324;2023-03-20T11:45:53;98687.00;;;17.43;53.64
9740;BME280;4909;42.680;26.324;2023-03-20T11:48:22;98715.19;;;17.86;52.82
9740;BME280;4909;42.680;26.324;2023-03-20T11:50:56;98715.38;;;17.96;51.40
9740;BME280;4909;42.680;26.324;2023-03-20T11:53:27;98715.34;;;17.59;52.95
9740;BME280;4909;42.680;26.324;2023-03-20T11:56:03;98706.97;;;18.00;51.92
9740;BME280;4909;42.680;26.324;2023-03-20T11:58:31;98703.59;;;18.33;51.72
9740;BME280;4909;42.680;26.324;2023-03-20T12:01:00;98697.56;;;18.06;50.70
9740;BME280;4909;42.680;26.324;2023-03-20T12:03:38;98698.91;;;17.64;54.66
9740;BME280;4909;42.680;26.324;2023-03-20T12:06:08;98692.91;;;18.20;53.09
9740;BME280;4909;42.680;26.324;2023-03-20T12:08:40;98684.72;;;18.46;50.61
9740;BME280;4909;42.680;26.324;2023-03-20T12:14:01;98684.28;;;18.87;48.63
9740;BME280;4909;42.680;26.324;2023-03-20T12:16:31;98667.59;;;18.71;48.92
9740;BME280;4909;42.680;26.324;2023-03-20T12:19:03;98650.06;;;18.30;49.77
9740;BME280;4909;42.680;26.324;2023-03-20T12:21:38;98680.63;;;18.05;51.16
9740;BME280;4909;42.680;26.324;2023-03-20T12:24:11;98677.78;;;18.19;51.47
9740;BME280;4909;42.680;26.324;2023-03-20T12:26:47;98678.63;;;18.44;50.16
9740;BME280;4909;42.680;26.324;2023-03-20T12:29:22;98658.47;;;18.14;50.85
9740;BME280;4909;42.680;26.324;2023-03-20T12:31:56;98666.25;;;18.41;50.43
9740;BME280;4909;42.680;26.324;2023-03-20T12:34:27;98668.06;;;18.30;52.24
9740;BME280;4909;42.680;26.324;2023-03-20T12:36:57;98657.22;;;18.66;52.03
9740;BME280;4909;42.680;26.324;2023-03-20T12:39:27;98654.59;;;19.10;50.83
9740;BME280;4909;42.680;26.324;2023-03-20T12:42:07;98654.75;;;19.31;48.54
9740;BME280;4909;42.680;26.324;2023-03-20T12:44:40;98664.56;;;19.55;48.48
9740;BME280;4909;42.680;26.324;2023-03-20T12:47:29;98655.13;;;19.60;48.35
9740;BME280;4909;42.680;26.324;2023-03-20T12:50:09;98645.66;;;19.77;48.50
9740;BME280;4909;42.680;26.324;2023-03-20T12:52:48;98647.84;;;19.94;46.75
9740;BME280;4909;42.680;26.324;2023-03-20T12:55:28;98643.44;;;19.93;47.16
9740;BME280;4909;42.680;26.324;2023-03-20T12:58:10;98633.00;;;20.00;47.22
9740;BME280;4909;42.680;26.324;2023-03-20T13:00:45;98634.69;;;20.12;47.17
9740;BME280;4909;42.680;26.324;2023-03-20T13:03:32;98639.47;;;20.08;46.04
9740;BME280;4909;42.680;26.324;2023-03-20T13:06:09;98639.94;;;20.13;46.07
9740;BME280;4909;42.680;26.324;2023-03-20T13:08:50;98637.47;;;20.21;44.74
9740;BME280;4909;42.680;26.324;2023-03-20T13:11:25;98595.47;;;19.76;47.27
9740;BME280;4909;42.680;26.324;2023-03-20T13:14:00;98632.69;;;19.71;45.62
9740;BME280;4909;42.680;26.324;2023-03-20T13:16:36;98636.97;;;19.84;47.41
9740;BME280;4909;42.680;26.324;2023-03-20T13:19:10;98643.91;;;19.98;45.36
9740;BME280;4909;42.680;26.324;2023-03-20T13:21:46;98641.84;;;19.90;48.18
9740;BME280;4909;42.680;26.324;2023-03-20T13:24:28;98634.41;;;19.83;45.34
9740;BME280;4909;42.680;26.324;2023-03-20T13:27:02;98635.00;;;19.75;45.80
9740;BME280;4909;42.680;26.324;2023-03-20T13:29:41;98638.56;;;19.76;44.84
9740;BME280;4909;42.680;26.324;2023-03-20T13:32:19;98633.44;;;19.17;46.19
9740;BME280;4909;42.680;26.324;2023-03-20T13:35:09;98628.66;;;18.87;49.77